Moleson — HBLE — position and weather

sailwx.info

Track history (hours):
 
Tides and Currents Weather Stations Pressure Air Temp Water Temp Dewpoint Dewpoint Depression Visibility Wind Speed Wind Dir Waves Ship Positions

Moleson

Last reported at 2015-Aug-28 08:33 UTC. Time now 2015-Aug-31 21:48 UTC.
Position N 55°41' E 015°33'.

Length 181 m; draft 6.6 m.

Type: Ship. MMSI: 269039000.

Date/timePositionNaut miles runAvg speedWind from/ knotsBaromVisibWave heightAir tempDewpointWater temp
2015-Aug-28 08:33N 55°41' E 015°33'1413.7
2015-Aug-28 07:33N 55°34' E 015°12'1414.2
2015-Aug-28 06:33N 55°27' E 014°51'1413.7
2015-Aug-28 05:33N 55°18' E 014°32'1313.4
2015-Aug-28 04:33N 55°08' E 014°17'1312.9
2015-Aug-28 03:33N 54°58' E 014°02'1313.3
2015-Aug-28 02:33N 54°55' E 013°40'2713.2
2015-Aug-28 00:29N 54°48' E 012°53'1613.3
2015-Aug-27 23:16N 54°39' E 012°30'1212.2
2015-Aug-27 22:17N 54°30' E 012°16'911.9
2015-Aug-27 21:33N 54°25' E 012°05'1313.3
2015-Aug-27 20:33N 54°26' E 011°42'1313.3
2015-Aug-27 19:33N 54°32' E 011°21'1313.0
2015-Aug-27 18:33N 54°35' E 010°59'1313.1
2015-Aug-27 17:33N 54°34' E 010°37'1312.8
2015-Aug-27 16:33N 54°29' E 010°17'7 6.7
2015-Aug-27 15:31N 54°23' E 010°11'0 0.0
2015-Aug-27 14:31N 54°23' E 010°11'1 1.5
2015-Aug-27 13:34N 54°22' E 010°09'1 1.3
2015-Aug-27 12:33N 54°22' E 010°07'6 6.0
2015-Aug-27 11:34N 54°20' E 009°57'6 6.2
2015-Aug-27 10:33N 54°21' E 009°46'6 6.4
2015-Aug-27 09:34N 54°17' E 009°38'6 5.6
2015-Aug-27 08:33N 54°12' E 009°33'7 7.0
2015-Aug-27 07:34N 54°09' E 009°22'7 6.7
2015-Aug-27 06:33N 54°03' E 009°18'6 5.7
2015-Aug-27 05:33N 53°58' E 009°15'5 5.2
2015-Aug-27 04:34N 53°54' E 009°09'0 0.3
2015-Aug-27 03:33N 53°54' E 009°08'2 2.0
2015-Aug-27 02:33N 53°53' E 009°05'0 0.0
2015-Aug-27 01:33N 53°53' E 009°05'5 4.9
2015-Aug-27 00:34N 53°51' E 008°58'10 9.6
2015-Aug-26 23:33N 53°53' E 008°42'1010.0
2015-Aug-26 22:33N 53°59' E 008°28'1111.2
2015-Aug-26 21:33N 53°60' E 008°09'1111.2
2015-Aug-26 20:33N 54°01' E 007°50'8 8.4
2015-Aug-26 19:33N 53°57' E 007°38'1313.3
2015-Aug-26 18:33N 53°53' E 007°16'1413.9
2015-Aug-26 17:33N 53°50' E 006°53'1414.0
2015-Aug-26 16:33N 53°46' E 006°30'1414.0
2015-Aug-26 15:33N 53°42' E 006°08'1414.0
2015-Aug-26 14:33N 53°39' E 005°45'1414.1
2015-Aug-26 13:33N 53°34' E 005°22'1414.2
2015-Aug-26 12:33N 53°29' E 005°00'1413.8
2015-Aug-26 11:33N 53°21' E 004°41'1514.2
2015-Aug-26 10:30N 53°08' E 004°30'1313.9
2015-Aug-26 09:33N 52°56' E 004°20'1313.4
2015-Aug-26 08:33N 52°45' E 004°08'1313.1
2015-Aug-26 07:32N 52°35' E 003°53'9113.0
2015-Aug-26 00:33N 51°29' E 002°13'1313.2
2015-Aug-25 23:33N 51°16' E 002°08'1414.5
2015-Aug-25 22:33N 51°08' E 001°48'1515.2
2015-Aug-25 21:34N 50°57' E 001°32'1715.2
2015-Aug-25 20:28N 50°42' E 001°21'4214.1
2015-Aug-25 17:29N 50°24' E 000°21'19913.1
2015-Aug-25 02:16N 49°15' W 004°28'1013.4
2015-Aug-25 01:32N 49°10' W 004°41'1413.4
2015-Aug-25 00:31N 49°03' W 004°58'  
2015-Aug-22 19:21N 39°38' W 009°48'911.9
2015-Aug-22 18:33N 39°29' W 009°48'1212.1
2015-Aug-22 17:33N 39°17' W 009°49'1312.8
2015-Aug-22 16:33N 39°04' W 009°51'1313.1
2015-Aug-22 15:33N 38°51' W 009°51'1312.8
2015-Aug-22 14:33N 38°38' W 009°50'1313.1
2015-Aug-22 13:33N 38°26' W 009°44'1313.0
2015-Aug-22 12:33N 38°13' W 009°40'1313.3
2015-Aug-22 11:33N 38°00' W 009°36'1313.1
2015-Aug-22 10:33N 37°47' W 009°35'1312.9
2015-Aug-22 09:33N 37°35' W 009°31'1313.1
2015-Aug-22 08:33N 37°22' W 009°27'1412.9
2015-Aug-22 07:30N 37°09' W 009°23'1212.5
2015-Aug-22 06:33N 36°57' W 009°20'1211.4
2015-Aug-22 05:31N 36°47' W 009°13'1111.2
2015-Aug-22 04:33N 36°43' W 009°00'1010.2
2015-Aug-22 03:33N 36°37' W 008°50'1111.4
2015-Aug-22 02:33N 36°25' W 008°49'1212.1
2015-Aug-22 01:33N 36°14' W 008°45'  
2015-Aug-19 15:13N 33°36' W 007°37'  
Track history (hours):
 
Tides and Currents Weather Stations Pressure Air Temp Water Temp Dewpoint Dewpoint Depression Visibility Wind Speed Wind Dir Waves Ship Positions

Moleson

Last reported at 2015-Aug-28 08:33 UTC. Time now 2015-Aug-31 21:48 UTC.
Position N 55°41' E 015°33'.

Length 181 m; draft 6.6 m.

Type: Ship. MMSI: 269039000.

Date/timePositionNaut miles runAvg speedWind from/ knotsBaromVisibWave heightAir tempDewpointWater temp
2015-Aug-28 08:33N 55°41' E 015°33'1413.7
2015-Aug-28 07:33N 55°34' E 015°12'1414.2
2015-Aug-28 06:33N 55°27' E 014°51'1413.7
2015-Aug-28 05:33N 55°18' E 014°32'1313.4
2015-Aug-28 04:33N 55°08' E 014°17'1312.9
2015-Aug-28 03:33N 54°58' E 014°02'1313.3
2015-Aug-28 02:33N 54°55' E 013°40'2713.2
2015-Aug-28 00:29N 54°48' E 012°53'1613.3
2015-Aug-27 23:16N 54°39' E 012°30'1212.2
2015-Aug-27 22:17N 54°30' E 012°16'911.9
2015-Aug-27 21:33N 54°25' E 012°05'1313.3
2015-Aug-27 20:33N 54°26' E 011°42'1313.3
2015-Aug-27 19:33N 54°32' E 011°21'1313.0
2015-Aug-27 18:33N 54°35' E 010°59'1313.1
2015-Aug-27 17:33N 54°34' E 010°37'1312.8
2015-Aug-27 16:33N 54°29' E 010°17'7 6.7
2015-Aug-27 15:31N 54°23' E 010°11'0 0.0
2015-Aug-27 14:31N 54°23' E 010°11'1 1.5
2015-Aug-27 13:34N 54°22' E 010°09'1 1.3
2015-Aug-27 12:33N 54°22' E 010°07'6 6.0
2015-Aug-27 11:34N 54°20' E 009°57'6 6.2
2015-Aug-27 10:33N 54°21' E 009°46'6 6.4
2015-Aug-27 09:34N 54°17' E 009°38'6 5.6
2015-Aug-27 08:33N 54°12' E 009°33'7 7.0
2015-Aug-27 07:34N 54°09' E 009°22'7 6.7
2015-Aug-27 06:33N 54°03' E 009°18'6 5.7
2015-Aug-27 05:33N 53°58' E 009°15'5 5.2
2015-Aug-27 04:34N 53°54' E 009°09'0 0.3
2015-Aug-27 03:33N 53°54' E 009°08'2 2.0
2015-Aug-27 02:33N 53°53' E 009°05'0 0.0
2015-Aug-27 01:33N 53°53' E 009°05'5 4.9
2015-Aug-27 00:34N 53°51' E 008°58'10 9.6
2015-Aug-26 23:33N 53°53' E 008°42'1010.0
2015-Aug-26 22:33N 53°59' E 008°28'1111.2
2015-Aug-26 21:33N 53°60' E 008°09'1111.2
2015-Aug-26 20:33N 54°01' E 007°50'8 8.4
2015-Aug-26 19:33N 53°57' E 007°38'1313.3
2015-Aug-26 18:33N 53°53' E 007°16'1413.9
2015-Aug-26 17:33N 53°50' E 006°53'1414.0
2015-Aug-26 16:33N 53°46' E 006°30'1414.0
2015-Aug-26 15:33N 53°42' E 006°08'1414.0
2015-Aug-26 14:33N 53°39' E 005°45'1414.1
2015-Aug-26 13:33N 53°34' E 005°22'1414.2
2015-Aug-26 12:33N 53°29' E 005°00'1413.8
2015-Aug-26 11:33N 53°21' E 004°41'1514.2
2015-Aug-26 10:30N 53°08' E 004°30'1313.9
2015-Aug-26 09:33N 52°56' E 004°20'1313.4
2015-Aug-26 08:33N 52°45' E 004°08'1313.1
2015-Aug-26 07:32N 52°35' E 003°53'9113.0
2015-Aug-26 00:33N 51°29' E 002°13'1313.2
2015-Aug-25 23:33N 51°16' E 002°08'1414.5
2015-Aug-25 22:33N 51°08' E 001°48'1515.2
2015-Aug-25 21:34N 50°57' E 001°32'1715.2
2015-Aug-25 20:28N 50°42' E 001°21'4214.1
2015-Aug-25 17:29N 50°24' E 000°21'19913.1
2015-Aug-25 02:16N 49°15' W 004°28'1013.4
2015-Aug-25 01:32N 49°10' W 004°41'1413.4
2015-Aug-25 00:31N 49°03' W 004°58'  
2015-Aug-22 19:21N 39°38' W 009°48'911.9
2015-Aug-22 18:33N 39°29' W 009°48'1212.1
2015-Aug-22 17:33N 39°17' W 009°49'1312.8
2015-Aug-22 16:33N 39°04' W 009°51'1313.1
2015-Aug-22 15:33N 38°51' W 009°51'1312.8
2015-Aug-22 14:33N 38°38' W 009°50'1313.1
2015-Aug-22 13:33N 38°26' W 009°44'1313.0
2015-Aug-22 12:33N 38°13' W 009°40'1313.3
2015-Aug-22 11:33N 38°00' W 009°36'1313.1
2015-Aug-22 10:33N 37°47' W 009°35'1312.9
2015-Aug-22 09:33N 37°35' W 009°31'1313.1
2015-Aug-22 08:33N 37°22' W 009°27'1412.9
2015-Aug-22 07:30N 37°09' W 009°23'1212.5
2015-Aug-22 06:33N 36°57' W 009°20'1211.4
2015-Aug-22 05:31N 36°47' W 009°13'1111.2
2015-Aug-22 04:33N 36°43' W 009°00'1010.2
2015-Aug-22 03:33N 36°37' W 008°50'1111.4
2015-Aug-22 02:33N 36°25' W 008°49'1212.1
2015-Aug-22 01:33N 36°14' W 008°45'  
2015-Aug-19 15:13N 33°36' W 007°37'  

Dump ship's entire track history